createdAt,value
2018-04-19T00:06:48.282Z,102469.31
2018-04-19T00:09:16.428Z,102473.51
2018-04-19T00:11:44.575Z,102474.77
2018-04-19T00:14:12.708Z,102469.44
2018-04-19T00:16:40.850Z,102475.19
2018-04-19T00:19:08.968Z,102473.64
2018-04-19T00:21:37.095Z,102471.66
2018-04-19T00:24:05.257Z,102470.77
2018-04-19T00:26:33.384Z,102469.14
2018-04-19T00:29:01.534Z,102461.64
2018-04-19T00:31:29.665Z,102458.03
2018-04-19T00:33:57.816Z,102463.56
2018-04-19T00:36:25.932Z,102464.19
2018-04-19T00:38:54.077Z,102458.05
2018-04-19T00:41:22.189Z,102453.50
2018-04-19T00:43:50.323Z,102453.70
2018-04-19T00:46:18.484Z,102455.11
2018-04-19T00:48:46.598Z,102454.15
2018-04-19T00:51:14.726Z,102451.58
2018-04-19T00:53:42.864Z,102443.56
2018-04-19T00:56:11.010Z,102443.34
2018-04-19T00:58:39.161Z,102438.12
2018-04-19T01:01:07.299Z,102435.78
2018-04-19T01:03:35.422Z,102432.68
2018-04-19T01:06:03.573Z,102425.69
2018-04-19T01:08:31.719Z,102428.28
2018-04-19T01:10:59.844Z,102430.42
2018-04-19T01:13:27.979Z,102431.70
2018-04-19T01:15:56.131Z,102429.95
2018-04-19T01:18:24.268Z,102437.69
2018-04-19T01:20:52.390Z,102428.47
2018-04-19T01:23:20.873Z,102425.82
2018-04-19T01:25:49.017Z,102421.23
2018-04-19T01:28:17.146Z,102412.98
2018-04-19T01:30:45.301Z,102419.30
2018-04-19T01:33:13.412Z,102414.51
2018-04-19T01:35:53.355Z,102410.19
2018-04-19T01:38:21.465Z,102418.90
2018-04-19T01:40:49.606Z,102419.10
2018-04-19T01:43:17.798Z,102413.08
2018-04-19T01:45:45.951Z,102417.78
2018-04-19T01:48:14.100Z,102412.39
2018-04-19T01:50:42.223Z,102413.86
2018-04-19T01:53:10.350Z,102415.11
2018-04-19T01:55:38.471Z,102418.14
2018-04-19T01:58:06.597Z,102413.44
2018-04-19T02:00:34.744Z,102407.26
2018-04-19T02:03:02.871Z,102413.67
2018-04-19T02:05:31.007Z,102408.19
2018-04-19T02:07:59.183Z,102414.69
2018-04-19T02:10:27.268Z,102411.20
2018-04-19T02:12:55.419Z,102414.58
2018-04-19T02:15:23.786Z,102410.42
2018-04-19T02:17:53.201Z,102403.93
2018-04-19T02:20:21.315Z,102400.00
2018-04-19T02:22:49.440Z,102399.65
2018-04-19T02:25:17.580Z,102403.61
2018-04-19T02:27:45.685Z,102398.56
2018-04-19T02:30:13.806Z,102401.02
2018-04-19T02:32:41.962Z,102396.66
2018-04-19T02:35:10.232Z,102394.80
2018-04-19T02:37:38.366Z,102391.84
2018-04-19T02:40:06.476Z,102381.19
2018-04-19T02:42:34.621Z,102384.30
2018-04-19T02:45:02.775Z,102380.92
2018-04-19T02:47:30.914Z,102378.94
2018-04-19T02:49:59.045Z,102381.74
2018-04-19T02:52:27.194Z,102381.58
2018-04-19T02:54:55.317Z,102376.92
2018-04-19T02:57:23.450Z,102373.97
2018-04-19T02:59:51.560Z,102368.98
2018-04-19T03:02:19.718Z,102370.44
2018-04-19T03:04:47.855Z,102370.75
2018-04-19T03:07:15.991Z,102366.98
2018-04-19T03:09:44.104Z,102368.93
2018-04-19T03:12:12.233Z,102370.67
2018-04-19T03:14:43.753Z,102358.86
2018-04-19T03:17:11.866Z,102359.56
2018-04-19T03:19:40.117Z,102357.03
2018-04-19T03:22:08.258Z,102360.61
2018-04-19T03:24:36.378Z,102356.53
2018-04-19T03:27:04.528Z,102358.52
2018-04-19T03:29:32.678Z,102354.05
2018-04-19T03:32:00.818Z,102356.02
2018-04-19T03:34:28.946Z,102349.61
2018-04-19T03:36:57.070Z,102356.14
2018-04-19T03:39:25.207Z,102354.37
2018-04-19T03:41:53.382Z,102354.11
2018-04-19T03:44:21.530Z,102352.66
2018-04-19T03:46:49.674Z,102350.30
2018-04-19T03:49:17.823Z,102347.15
2018-04-19T03:51:45.984Z,102353.25
2018-04-19T03:54:14.121Z,102352.86
2018-04-19T03:56:42.247Z,102349.98
2018-04-19T03:59:10.377Z,102348.51
2018-04-19T04:01:38.516Z,102349.67
2018-04-19T04:04:06.647Z,102352.11
2018-04-19T04:06:34.789Z,102346.91
2018-04-19T04:09:02.956Z,102343.62
2018-04-19T04:11:31.119Z,102347.11
2018-04-19T04:14:02.503Z,102348.78
2018-04-19T04:16:42.563Z,102351.73
2018-04-19T04:19:22.553Z,102344.43
2018-04-19T04:22:02.509Z,102349.78
2018-04-19T04:24:30.628Z,102351.14
2018-04-19T04:26:58.770Z,102352.09
2018-04-19T04:29:27.848Z,102350.04
2018-04-19T04:31:55.981Z,102352.24
2018-04-19T04:34:24.120Z,102348.94
2018-04-19T04:36:52.410Z,102348.08
2018-04-19T04:39:20.558Z,102351.73
2018-04-19T04:41:48.710Z,102350.12
2018-04-19T04:44:16.841Z,102348.87
2018-04-19T04:46:44.994Z,102348.05
2018-04-19T04:49:13.116Z,102346.33
2018-04-19T04:51:41.243Z,102346.95
2018-04-19T04:54:09.399Z,102353.93
2018-04-19T04:56:37.513Z,102351.35
2018-04-19T04:59:05.669Z,102354.69
2018-04-19T05:01:33.782Z,102355.56
2018-04-19T05:04:01.921Z,102349.70
2018-04-19T05:06:30.059Z,102350.84
2018-04-19T05:08:58.187Z,102347.51
2018-04-19T05:11:26.334Z,102352.63
2018-04-19T05:13:54.466Z,102351.02
2018-04-19T05:16:22.581Z,102351.02
2018-04-19T05:18:50.754Z,102356.92
2018-04-19T05:21:18.883Z,102350.31
2018-04-19T05:23:47.034Z,102356.42
2018-04-19T05:26:15.215Z,102360.52
2018-04-19T05:28:43.299Z,102357.05
2018-04-19T05:31:13.339Z,102357.95
2018-04-19T05:33:41.489Z,102352.81
2018-04-19T05:36:09.639Z,102355.08
2018-04-19T05:38:37.789Z,102359.09
2018-04-19T05:41:05.905Z,102362.77
2018-04-19T05:43:34.080Z,102366.41
2018-04-19T05:46:02.223Z,102364.29
2018-04-19T05:48:30.350Z,102371.14
2018-04-19T05:50:58.503Z,102370.17
2018-04-19T05:53:26.648Z,102370.10
2018-04-19T05:55:54.779Z,102375.02
2018-04-19T05:58:22.949Z,102370.62
2018-04-19T06:00:51.076Z,102369.16
2018-04-19T06:03:19.196Z,102370.75
2018-04-19T06:05:50.382Z,102364.52
2018-04-19T06:08:18.524Z,102373.49
2018-04-19T06:10:46.639Z,102365.55
2018-04-19T06:13:14.794Z,102366.83
2018-04-19T06:15:42.932Z,102363.44
2018-04-19T06:18:11.074Z,102363.91
2018-04-19T06:20:39.214Z,102366.72
2018-04-19T06:23:07.357Z,102365.04
2018-04-19T06:25:35.488Z,102368.13
2018-04-19T06:28:03.618Z,102358.68
2018-04-19T06:30:31.762Z,102364.88
2018-04-19T06:32:59.894Z,102362.52
2018-04-19T06:35:28.131Z,102371.11
2018-04-19T06:38:00.109Z,102371.57
2018-04-19T06:40:28.231Z,102376.73
2018-04-19T06:42:56.846Z,102371.27
2018-04-19T06:45:24.952Z,102378.56
2018-04-19T06:47:53.100Z,102377.22
2018-04-19T06:50:21.396Z,102376.32
2018-04-19T06:52:49.540Z,102366.66
2018-04-19T06:55:17.652Z,102377.81
2018-04-19T06:57:45.805Z,102372.03
2018-04-19T07:00:13.962Z,102375.39
2018-04-19T07:02:42.077Z,102372.46
2018-04-19T07:05:10.239Z,102371.97
2018-04-19T07:07:38.377Z,102370.03
2018-04-19T07:10:06.496Z,102373.19
2018-04-19T07:12:34.625Z,102368.25
2018-04-19T07:15:02.771Z,102366.97
2018-04-19T07:17:30.915Z,102367.10
2018-04-19T07:19:59.076Z,102367.13
2018-04-19T07:22:27.204Z,102368.95
2018-04-19T07:24:55.334Z,102370.94
2018-04-19T07:27:23.490Z,102372.80
2018-04-19T07:29:51.635Z,102369.24
2018-04-19T07:32:19.801Z,102372.17
2018-04-19T07:34:47.919Z,102373.05
2018-04-19T07:37:16.057Z,102370.52
2018-04-19T07:39:44.210Z,102367.46
2018-04-19T07:42:12.338Z,102377.30
2018-04-19T07:44:40.495Z,102370.98
2018-04-19T07:47:08.600Z,102365.52
2018-04-19T07:49:36.742Z,102364.81
2018-04-19T07:52:04.869Z,102367.25
2018-04-19T07:54:33.017Z,102371.20
2018-04-19T07:57:01.148Z,102365.71
2018-04-19T07:59:29.285Z,102364.41
2018-04-19T08:01:57.416Z,102368.47
2018-04-19T08:04:25.582Z,102373.27
2018-04-19T08:06:53.702Z,102371.09
2018-04-19T08:09:21.817Z,102370.70
2018-04-19T08:11:49.970Z,102370.41
2018-04-19T08:14:18.099Z,102361.61
2018-04-19T08:16:46.252Z,102361.67
2018-04-19T08:19:14.383Z,102360.59
2018-04-19T08:21:42.518Z,102356.34
2018-04-19T08:24:10.891Z,102349.09
2018-04-19T08:26:39.036Z,102358.46
2018-04-19T08:29:07.175Z,102353.53
2018-04-19T08:31:35.295Z,102349.84
2018-04-19T08:34:03.458Z,102351.69
2018-04-19T08:36:31.591Z,102354.16
2018-04-19T08:38:59.738Z,102341.36
2018-04-19T08:41:27.903Z,102344.53
2018-04-19T08:43:56.022Z,102348.13
2018-04-19T08:46:24.144Z,102342.19
2018-04-19T08:48:52.277Z,102346.02
2018-04-19T08:51:20.417Z,102342.31
2018-04-19T08:53:48.909Z,102342.02
2018-04-19T08:56:17.291Z,102349.17
2018-04-19T08:58:45.431Z,102342.85
2018-04-19T09:01:13.549Z,102336.03
2018-04-19T09:03:41.698Z,102336.53
2018-04-19T09:06:09.819Z,102341.36
2018-04-19T09:08:37.959Z,102339.23
2018-04-19T09:11:06.096Z,102328.48
2018-04-19T09:13:34.262Z,102327.88
2018-04-19T09:16:02.383Z,102328.39
2018-04-19T09:18:30.535Z,102328.11
2018-04-19T09:20:58.685Z,102325.49
2018-04-19T09:23:26.817Z,102327.92
2018-04-19T09:25:54.974Z,102331.50
2018-04-19T09:28:23.102Z,102328.52
2018-04-19T09:30:51.243Z,102324.74
2018-04-19T09:33:19.369Z,102326.75
2018-04-19T09:35:50.614Z,102319.83
2018-04-19T09:38:18.750Z,102328.79
2018-04-19T09:40:46.898Z,102324.64
2018-04-19T09:43:15.037Z,102331.70
2018-04-19T09:45:43.140Z,102324.86
2018-04-19T09:48:11.279Z,102321.56
2018-04-19T09:50:39.432Z,102331.84
2018-04-19T09:53:07.543Z,102322.07
2018-04-19T09:55:35.730Z,102321.71
2018-04-19T09:58:09.489Z,102318.22
2018-04-19T10:00:43.625Z,102316.95
2018-04-19T10:03:17.441Z,102318.39
2018-04-19T10:05:47.492Z,102315.45
2018-04-19T10:08:15.625Z,102311.01
2018-04-19T10:10:43.785Z,102316.86
2018-04-19T10:13:12.166Z,102313.48
2018-04-19T10:15:40.313Z,102312.81
2018-04-19T10:18:08.469Z,102313.53
2018-04-19T10:20:36.615Z,102305.98
2018-04-19T10:23:04.750Z,102300.76
2018-04-19T10:25:32.859Z,102298.00
2018-04-19T10:28:01.006Z,102298.45
2018-04-19T10:30:32.468Z,102301.45
2018-04-19T10:33:00.608Z,102294.55
2018-04-19T10:35:28.739Z,102291.13
2018-04-19T10:37:56.888Z,102281.94
2018-04-19T10:40:25.010Z,102283.83
2018-04-19T10:42:53.349Z,102277.57
2018-04-19T10:45:21.469Z,102280.64
2018-04-19T10:47:50.504Z,102281.84
2018-04-19T10:50:18.655Z,102279.02
2018-04-19T10:52:46.806Z,102271.55
2018-04-19T10:55:14.936Z,102274.02
2018-04-19T10:57:43.077Z,102271.27
2018-04-19T11:00:11.192Z,102268.27
2018-04-19T11:02:39.333Z,102262.45
2018-04-19T11:05:07.467Z,102263.25
2018-04-19T11:07:35.597Z,102265.83
2018-04-19T11:10:03.724Z,102258.95
2018-04-19T11:12:31.861Z,102252.70
2018-04-19T11:14:59.992Z,102255.05
2018-04-19T11:17:28.122Z,102256.44
2018-04-19T11:19:56.285Z,102248.83
2018-04-19T11:22:24.415Z,102245.14
2018-04-19T11:24:52.556Z,102237.84
2018-04-19T11:27:20.719Z,102240.06
2018-04-19T11:29:48.851Z,102238.28
2018-04-19T11:32:17.014Z,102241.77
2018-04-19T11:34:45.190Z,102235.65
2018-04-19T11:37:13.334Z,102224.87
2018-04-19T11:39:41.541Z,102227.81
2018-04-19T11:42:09.717Z,102229.05
2018-04-19T11:44:39.766Z,102222.36
2018-04-19T11:47:07.910Z,102215.52
2018-04-19T11:49:36.063Z,102209.89
2018-04-19T11:52:04.230Z,102214.38
2018-04-19T11:54:32.364Z,102204.42
2018-04-19T11:57:00.584Z,102212.38
2018-04-19T11:59:28.713Z,102202.20
2018-04-19T12:01:56.849Z,102204.64
2018-04-19T12:04:24.987Z,102199.20
2018-04-19T12:06:53.135Z,102194.64
2018-04-19T12:09:21.290Z,102195.70
2018-04-19T12:11:49.463Z,102193.66
2018-04-19T12:14:17.593Z,102199.23
2018-04-19T12:16:47.650Z,102196.98
2018-04-19T12:19:15.860Z,102196.02
2018-04-19T12:21:43.957Z,102201.79
2018-04-19T12:24:12.069Z,102189.44
2018-04-19T12:26:40.234Z,102185.92
2018-04-19T12:29:08.357Z,102183.70
2018-04-19T12:31:36.635Z,102182.45
2018-04-19T12:34:04.813Z,102181.06
2018-04-19T12:36:32.934Z,102181.30
2018-04-19T12:39:01.079Z,102183.59
2018-04-19T12:41:29.221Z,102176.36
2018-04-19T12:43:57.355Z,102184.13
2018-04-19T12:46:25.506Z,102181.52
2018-04-19T12:48:53.625Z,102176.60
2018-04-19T12:51:21.797Z,102171.93
2018-04-19T12:53:49.920Z,102175.16
2018-04-19T12:56:18.072Z,102176.00
2018-04-19T12:58:46.196Z,102169.16
2018-04-19T13:01:14.342Z,102171.74
2018-04-19T13:03:42.492Z,102162.93
2018-04-19T13:06:10.627Z,102170.28
2018-04-19T13:08:38.784Z,102168.16
2018-04-19T13:11:06.900Z,102165.30
2018-04-19T13:13:35.920Z,102161.06
2018-04-19T13:16:04.077Z,102158.05
2018-04-19T13:18:32.193Z,102155.02
2018-04-19T13:21:00.361Z,102158.23
2018-04-19T13:23:28.514Z,102145.72
2018-04-19T13:25:56.704Z,102137.66
2018-04-19T13:28:24.768Z,102141.34
2018-04-19T13:30:52.902Z,102140.48
2018-04-19T13:33:21.070Z,102146.78
2018-04-19T13:35:49.190Z,102137.75
2018-04-19T13:38:17.326Z,102127.91
2018-04-19T13:40:45.476Z,102127.72
2018-04-19T13:43:13.610Z,102124.97
2018-04-19T13:45:41.752Z,102127.23
2018-04-19T13:48:10.058Z,102123.09
2018-04-19T13:50:38.171Z,102110.70
2018-04-19T13:53:06.328Z,102117.06
2018-04-19T13:55:34.489Z,102114.87
2018-04-19T13:58:02.615Z,102111.52
2018-04-19T14:00:30.729Z,102109.91
2018-04-19T14:02:58.923Z,102105.41
2018-04-19T14:05:27.061Z,102104.77
2018-04-19T14:07:55.164Z,102095.03
2018-04-19T14:10:23.310Z,102094.24
2018-04-19T14:12:51.467Z,102099.69
2018-04-19T14:15:19.628Z,102099.19
2018-04-19T14:17:47.763Z,102086.16
2018-04-19T14:20:15.897Z,102082.34
2018-04-19T14:22:44.024Z,102087.45
2018-04-19T14:25:12.172Z,102087.61
2018-04-19T14:27:40.293Z,102076.60
2018-04-19T14:30:08.413Z,102078.25
2018-04-19T14:32:36.557Z,102082.16
2018-04-19T14:35:04.697Z,102083.48
2018-04-19T14:37:32.831Z,102079.19
2018-04-19T14:40:00.988Z,102070.89
2018-04-19T14:42:29.110Z,102067.22
2018-04-19T14:44:57.243Z,102072.02
2018-04-19T14:47:25.821Z,102067.34
2018-04-19T14:49:53.928Z,102062.25
2018-04-19T14:52:22.066Z,102061.60
2018-04-19T14:54:50.219Z,102055.60
2018-04-19T14:57:18.348Z,102051.80
2018-04-19T14:59:46.475Z,102056.59
2018-04-19T15:02:14.632Z,102050.95
2018-04-19T15:04:42.737Z,102048.38
2018-04-19T15:07:10.892Z,102041.38
2018-04-19T15:09:39.049Z,102045.95
2018-04-19T15:12:07.182Z,102035.63
2018-04-19T15:14:35.311Z,102028.24
2018-04-19T15:17:03.495Z,102035.57
2018-04-19T15:19:31.642Z,102034.09
2018-04-19T15:21:59.862Z,102029.19
2018-04-19T15:24:27.972Z,102029.02
2018-04-19T15:26:56.122Z,102030.09
2018-04-19T15:29:24.266Z,102027.80
2018-04-19T15:31:52.393Z,102027.22
2018-04-19T15:34:20.526Z,102033.67
2018-04-19T15:36:49.563Z,102027.67
2018-04-19T15:39:17.720Z,102019.06
2018-04-19T15:41:45.836Z,102017.48
2018-04-19T15:44:13.971Z,102022.31
2018-04-19T15:46:42.134Z,102018.38
2018-04-19T15:49:10.267Z,102021.15
2018-04-19T15:51:38.409Z,102017.66
2018-04-19T15:54:06.540Z,102014.90
2018-04-19T15:56:34.689Z,102010.63
2018-04-19T15:59:02.888Z,102010.80
2018-04-19T16:01:30.969Z,102005.86
2018-04-19T16:03:59.100Z,102009.08
2018-04-19T16:06:27.240Z,102013.47
2018-04-19T16:08:55.416Z,102009.25
2018-04-19T16:11:23.569Z,102005.11
2018-04-19T16:13:51.709Z,102004.22
2018-04-19T16:16:19.836Z,102008.38
2018-04-19T16:18:47.973Z,102005.28
2018-04-19T16:21:16.131Z,102002.87
2018-04-19T16:23:44.271Z,101997.34
2018-04-19T16:26:12.381Z,101994.08
2018-04-19T16:31:08.646Z,101988.14
2018-04-19T16:33:36.783Z,101980.08
2018-04-19T16:36:04.919Z,101984.78
2018-04-19T16:38:33.078Z,101988.16
2018-04-19T16:41:01.213Z,101985.00
2018-04-19T16:43:29.326Z,101984.05
2018-04-19T16:46:01.060Z,101987.64
2018-04-19T16:48:29.201Z,101981.05
2018-04-19T16:50:57.351Z,101977.73
2018-04-19T16:53:25.498Z,101972.31
2018-04-19T16:55:53.620Z,101971.38
2018-04-19T16:58:21.724Z,101978.79
2018-04-19T17:00:49.870Z,101976.50
2018-04-19T17:03:18.003Z,101970.22
2018-04-19T17:05:46.104Z,101968.28
2018-04-19T17:08:14.304Z,101970.73
2018-04-19T17:10:42.417Z,101970.38
2018-04-19T17:13:10.607Z,101968.52
2018-04-19T17:15:38.754Z,101969.22
2018-04-19T17:18:06.883Z,101966.88
2018-04-19T17:20:34.980Z,101970.14
2018-04-19T17:23:03.154Z,101964.55
2018-04-19T17:25:32.176Z,101963.80
2018-04-19T17:28:00.660Z,101960.08
2018-04-19T17:30:32.205Z,101963.73
2018-04-19T17:33:00.342Z,101955.27
2018-04-19T17:35:28.497Z,101961.66
2018-04-19T17:37:56.645Z,101956.31
2018-04-19T17:40:24.805Z,101957.03
2018-04-19T17:42:52.887Z,101960.51
2018-04-19T17:45:21.132Z,101962.96
2018-04-19T17:47:49.261Z,101959.50
2018-04-19T17:50:17.387Z,101967.44
2018-04-19T17:52:45.571Z,101961.99
2018-04-19T17:55:13.716Z,101965.77
2018-04-19T17:57:41.831Z,101961.45
2018-04-19T18:00:09.960Z,101962.14
2018-04-19T18:02:39.258Z,101961.25
2018-04-19T18:05:07.370Z,101961.77
2018-04-19T18:07:35.515Z,101963.94
2018-04-19T18:10:03.668Z,101964.07
2018-04-19T18:12:31.813Z,101967.41
2018-04-19T18:14:59.951Z,101974.16
2018-04-19T18:17:28.079Z,101973.20
2018-04-19T18:19:56.226Z,101970.87
2018-04-19T18:22:24.359Z,101972.64
2018-04-19T18:24:52.496Z,101974.02
2018-04-19T18:27:20.680Z,101982.53
2018-04-19T18:29:48.840Z,101981.91
2018-04-19T18:32:16.977Z,101977.42
2018-04-19T18:34:45.110Z,101978.03
2018-04-19T18:37:13.260Z,101979.07
2018-04-19T18:39:41.445Z,101977.45
2018-04-19T18:42:09.524Z,101977.80
2018-04-19T18:44:41.310Z,101980.20
2018-04-19T18:47:09.425Z,101981.78
2018-04-19T18:49:37.539Z,101977.45
2018-04-19T18:52:05.676Z,101986.16
2018-04-19T18:54:33.827Z,101984.28
2018-04-19T18:57:02.000Z,101985.02
2018-04-19T18:59:30.352Z,101982.83
2018-04-19T19:01:58.477Z,101989.19
2018-04-19T19:04:26.617Z,101987.45
2018-04-19T19:06:54.759Z,101993.34
2018-04-19T19:09:22.884Z,101989.64
2018-04-19T19:11:51.008Z,101994.34
2018-04-19T19:14:32.837Z,101993.77
2018-04-19T19:17:01.142Z,101997.89
2018-04-19T19:19:41.126Z,101995.44
2018-04-19T19:22:09.248Z,101998.05
2018-04-19T19:24:37.407Z,102003.69
2018-04-19T19:27:05.562Z,102004.64
2018-04-19T19:29:33.713Z,102006.30
2018-04-19T19:32:01.846Z,102007.53
2018-04-19T19:34:30.143Z,102009.04
2018-04-19T19:36:58.271Z,102002.70
2018-04-19T19:39:26.420Z,102008.61
2018-04-19T19:41:54.573Z,102007.89
2018-04-19T19:44:22.710Z,102007.61
2018-04-19T19:46:50.842Z,102012.68
2018-04-19T19:49:18.979Z,102009.65
2018-04-19T19:51:47.119Z,102016.34
2018-04-19T19:54:15.256Z,102012.92
2018-04-19T19:56:46.955Z,102013.19
2018-04-19T19:59:15.113Z,102010.54
2018-04-19T20:01:43.235Z,102012.05
2018-04-19T20:04:11.428Z,102015.34
2018-04-19T20:06:39.551Z,102015.48
2018-04-19T20:09:07.652Z,102014.05
2018-04-19T20:11:35.800Z,102014.85
2018-04-19T20:14:04.559Z,102013.59
2018-04-19T20:16:32.671Z,102011.48
2018-04-19T20:19:00.809Z,102014.91
2018-04-19T20:21:28.964Z,102014.44
2018-04-19T20:23:57.113Z,102014.02
2018-04-19T20:26:25.297Z,102010.73
2018-04-19T20:28:53.425Z,102014.41
2018-04-19T20:31:21.579Z,102015.37
2018-04-19T20:33:49.830Z,102008.61
2018-04-19T20:36:17.927Z,102014.89
2018-04-19T20:38:46.052Z,102012.78
2018-04-19T20:41:14.297Z,102009.35
2018-04-19T20:43:42.436Z,102015.39
2018-04-19T20:46:10.718Z,102004.71
2018-04-19T20:48:38.885Z,102007.38
2018-04-19T20:51:06.998Z,102008.16
2018-04-19T20:53:35.130Z,102002.74
2018-04-19T20:56:03.269Z,102020.09
2018-04-19T20:58:31.408Z,102014.97
2018-04-19T21:00:59.539Z,102022.77
2018-04-19T21:03:27.722Z,102026.74
2018-04-19T21:05:55.856Z,102025.16
2018-04-19T21:08:23.971Z,102023.38
2018-04-19T21:10:52.122Z,102021.97
2018-04-19T21:13:20.295Z,102020.13
2018-04-19T21:15:48.412Z,102013.45
2018-04-19T21:18:16.585Z,102017.59
2018-04-19T21:20:44.747Z,102017.31
2018-04-19T21:23:12.940Z,102011.45
2018-04-19T21:25:41.268Z,102012.41
2018-04-19T21:28:09.404Z,102004.17
2018-04-19T21:30:37.558Z,102018.89
2018-04-19T21:33:05.721Z,102004.99
2018-04-19T21:35:33.875Z,102004.62
2018-04-19T21:38:02.066Z,102002.31
2018-04-19T21:40:30.216Z,102001.22
2018-04-19T21:42:58.618Z,102001.38
2018-04-19T21:45:26.742Z,101998.78
2018-04-19T21:47:55.068Z,102001.19
2018-04-19T21:50:23.203Z,102002.28
2018-04-19T21:52:51.354Z,101999.33
2018-04-19T21:55:19.478Z,101996.97
2018-04-19T21:57:47.615Z,102000.52
2018-04-19T22:00:19.226Z,101992.42
2018-04-19T22:02:47.354Z,101994.70
2018-04-19T22:05:15.465Z,101993.42
2018-04-19T22:07:43.580Z,102004.62
2018-04-19T22:10:11.891Z,101996.21
2018-04-19T22:12:40.041Z,101999.59
2018-04-19T22:15:08.148Z,102001.66
2018-04-19T22:17:36.291Z,101999.63
2018-04-19T22:20:04.425Z,102002.50
2018-04-19T22:22:32.538Z,101999.59
2018-04-19T22:25:00.695Z,101995.44
2018-04-19T22:27:28.827Z,101998.91
2018-04-19T22:29:56.949Z,101998.17
2018-04-19T22:32:25.080Z,101993.89
2018-04-19T22:34:53.219Z,101993.30
2018-04-19T22:37:21.348Z,101990.85
2018-04-19T22:39:50.024Z,101993.36
2018-04-19T22:42:18.157Z,101998.16
2018-04-19T22:44:46.264Z,101997.84
2018-04-19T22:47:14.405Z,101996.88
2018-04-19T22:49:42.834Z,102000.59
2018-04-19T22:52:10.971Z,101998.38
2018-04-19T22:54:39.100Z,102001.01
2018-04-19T22:57:07.226Z,101996.27
2018-04-19T22:59:35.357Z,101999.85
2018-04-19T23:02:03.507Z,101996.88
2018-04-19T23:04:31.613Z,101994.78
2018-04-19T23:06:59.742Z,101991.56
2018-04-19T23:09:28.123Z,101989.52
2018-04-19T23:11:56.298Z,101995.36
2018-04-19T23:14:24.480Z,101992.41
2018-04-19T23:16:52.621Z,101993.02
2018-04-19T23:19:20.836Z,101989.39
2018-04-19T23:21:48.971Z,101987.95
2018-04-19T23:24:17.123Z,101984.72
2018-04-19T23:26:49.964Z,101983.75
2018-04-19T23:29:18.085Z,101986.42
2018-04-19T23:31:46.211Z,101982.58
2018-04-19T23:34:14.348Z,101983.72
2018-04-19T23:36:42.705Z,101985.47
2018-04-19T23:39:10.834Z,101989.30
2018-04-19T23:41:38.961Z,101985.73
2018-04-19T23:44:07.121Z,101991.39
2018-04-19T23:46:35.246Z,101994.23
2018-04-19T23:49:03.357Z,101990.45
